Terminal Aerodrome Forecast
Issued by NWS Dallas/Fort Worth, TX

Home | Current Version | Previous Version | Text Only | Print | Product List | Glossary On
Versions: 1 2 3 4 5 6 7 8 9 10 11 12 13 14 15 16 17 18 19 20 21 22 23 24 25 26 27 28 29 30 31 32 33 34 35 36 37 38 39
000
FTUS44 KFWD 261724
TAFDFW
TAF
KDFW 261724Z 2618/2724 18008KT P6SM FEW020 OVC200
     FM262000 17012KT P6SM VCTS BKN090CB
     FM262200 15011KT P6SM BKN050 OVC200
     FM270200 14011KT P6SM VCTS BKN060CB
     FM270600 12012KT 4SM TSRA BKN025CB OVC080
     FM271000 07010KT P6SM VCSH BKN015
     FM271300 06010KT P6SM BKN012=

USA.gov is the U.S. government's official web portal to all federal, state and local government web resources and services.